createdAt,value
2023-07-14T00:01:38.027Z,60.61
2023-07-14T00:04:34.408Z,60.79
2023-07-14T00:07:04.918Z,60.61
2023-07-14T00:09:36.574Z,60.52
2023-07-14T00:12:25.620Z,60.77
2023-07-14T00:15:47.821Z,60.94
2023-07-14T00:18:25.783Z,61.08
2023-07-14T00:20:54.316Z,61.29
2023-07-14T00:23:22.866Z,61.25
2023-07-14T00:25:54.048Z,61.37
2023-07-14T00:28:31.498Z,61.53
2023-07-14T00:31:15.774Z,61.58
2023-07-14T00:34:01.718Z,62.01
2023-07-14T00:36:30.470Z,62.18
2023-07-14T00:39:08.513Z,62.49
2023-07-14T00:41:44.960Z,62.25
2023-07-14T00:44:16.863Z,62.39
2023-07-14T00:47:06.615Z,62.33
2023-07-14T00:49:58.895Z,62.53
2023-07-14T00:52:38.156Z,62.74
2023-07-14T00:55:39.057Z,62.87
2023-07-14T00:59:17.444Z,62.97
2023-07-14T01:02:43.337Z,63.10
2023-07-14T01:05:12.515Z,63.61
2023-07-14T01:07:45.224Z,63.89
2023-07-14T01:10:20.065Z,63.98
2023-07-14T01:13:01.563Z,64.20
2023-07-14T01:15:31.633Z,64.59
2023-07-14T01:18:00.883Z,64.54
2023-07-14T01:20:33.308Z,64.98
2023-07-14T01:23:30.826Z,64.60
2023-07-14T01:26:04.490Z,64.99
2023-07-14T01:28:33.489Z,65.20
2023-07-14T01:31:03.326Z,65.09
2023-07-14T01:33:31.780Z,65.48
2023-07-14T01:36:02.071Z,65.38
2023-07-14T01:38:31.319Z,65.26
2023-07-14T01:41:39.147Z,65.73
2023-07-14T01:44:08.921Z,65.64
2023-07-14T01:46:37.235Z,65.72
2023-07-14T01:49:29.428Z,65.59
2023-07-14T01:52:01.183Z,65.75
2023-07-14T01:54:39.400Z,65.87
2023-07-14T01:57:15.462Z,65.44
2023-07-14T01:59:52.273Z,65.33
2023-07-14T02:02:29.036Z,65.29
2023-07-14T02:04:57.793Z,65.31
2023-07-14T02:07:34.952Z,65.05
2023-07-14T02:10:04.167Z,65.15
2023-07-14T02:12:43.958Z,64.85
2023-07-14T02:15:33.544Z,65.06
2023-07-14T02:18:03.389Z,64.98
2023-07-14T02:20:38.884Z,65.00
2023-07-14T02:23:21.300Z,65.01
2023-07-14T02:26:09.264Z,64.99
2023-07-14T02:28:37.627Z,65.14
2023-07-14T02:31:24.845Z,65.36
2023-07-14T02:33:54.473Z,65.28
2023-07-14T02:36:43.681Z,65.39
2023-07-14T02:39:12.451Z,65.99
2023-07-14T02:41:44.360Z,66.19
2023-07-14T02:44:16.900Z,66.44
2023-07-14T02:46:53.727Z,66.32
2023-07-14T02:49:22.254Z,66.75
2023-07-14T02:51:50.824Z,66.63
2023-07-14T02:54:22.583Z,66.93
2023-07-14T02:56:51.104Z,66.99
2023-07-14T02:59:20.450Z,67.23
2023-07-14T03:01:56.224Z,67.60
2023-07-14T03:04:25.338Z,67.32
2023-07-14T03:06:53.675Z,67.96
2023-07-14T03:09:30.337Z,67.92
2023-07-14T03:11:59.432Z,67.68
2023-07-14T03:14:28.750Z,68.02
2023-07-14T03:16:59.703Z,68.31
2023-07-14T03:19:28.292Z,68.40
2023-07-14T03:22:17.045Z,68.15
2023-07-14T03:24:45.585Z,68.32
2023-07-14T03:27:14.123Z,68.29
2023-07-14T03:29:42.418Z,68.53
2023-07-14T03:32:14.257Z,68.55
2023-07-14T03:34:45.713Z,68.46
2023-07-14T03:38:15.116Z,68.32
2023-07-14T03:40:44.141Z,68.59
2023-07-14T03:43:12.748Z,68.56
2023-07-14T03:45:41.301Z,68.90
2023-07-14T03:48:10.271Z,69.19
2023-07-14T03:50:39.463Z,69.35
2023-07-14T03:53:14.086Z,69.75
2023-07-14T03:56:28.756Z,69.54
2023-07-14T03:59:17.719Z,70.01
2023-07-14T04:01:56.369Z,70.20
2023-07-14T04:04:24.997Z,70.22
2023-07-14T04:06:56.496Z,70.59
2023-07-14T04:09:45.543Z,70.32
2023-07-14T04:12:44.713Z,70.37
2023-07-14T04:15:21.856Z,70.28
2023-07-14T04:17:53.968Z,69.97
2023-07-14T04:20:28.016Z,69.97
2023-07-14T04:23:37.635Z,69.79
2023-07-14T04:26:09.429Z,69.69
2023-07-14T04:29:13.037Z,69.80
2023-07-14T04:31:44.431Z,69.89
2023-07-14T04:34:19.001Z,69.64
2023-07-14T04:36:48.466Z,69.60
2023-07-14T04:39:19.648Z,69.14
2023-07-14T04:42:11.713Z,68.81
2023-07-14T04:44:40.788Z,69.13
2023-07-14T04:47:09.828Z,68.67
2023-07-14T04:49:38.846Z,68.70
2023-07-14T04:52:08.138Z,68.28
2023-07-14T04:54:36.755Z,68.44
2023-07-14T04:57:09.046Z,68.15
2023-07-14T04:59:38.411Z,68.47
2023-07-14T05:02:07.207Z,67.89
2023-07-14T05:05:00.121Z,68.21
2023-07-14T05:07:32.225Z,67.77
2023-07-14T05:10:01.204Z,67.32
2023-07-14T05:12:29.680Z,66.95
2023-07-14T05:15:04.062Z,67.16
2023-07-14T05:17:36.147Z,66.95
2023-07-14T05:20:07.457Z,66.54
2023-07-14T05:22:36.205Z,66.16
2023-07-14T05:25:05.483Z,65.84
2023-07-14T05:27:37.452Z,65.60
2023-07-14T05:30:10.312Z,65.63
2023-07-14T05:32:39.693Z,65.20
2023-07-14T05:35:08.846Z,65.15
2023-07-14T05:37:37.248Z,64.71
2023-07-14T05:40:08.030Z,64.08
2023-07-14T05:42:36.518Z,63.82
2023-07-14T05:45:25.745Z,62.89
2023-07-14T05:47:54.893Z,62.05
2023-07-14T05:50:23.775Z,61.21
2023-07-14T05:53:05.006Z,60.82
2023-07-14T05:55:33.801Z,60.81
2023-07-14T05:58:05.399Z,60.09
2023-07-14T06:00:50.054Z,59.84
2023-07-14T06:03:24.171Z,59.29
2023-07-14T06:06:12.952Z,59.19
2023-07-14T06:09:06.338Z,59.28
2023-07-14T06:11:35.814Z,58.87
2023-07-14T06:14:26.833Z,57.81
2023-07-14T06:17:04.610Z,57.17
2023-07-14T06:19:33.143Z,57.35
2023-07-14T06:22:01.707Z,57.79
2023-07-14T06:24:37.693Z,57.58
2023-07-14T06:27:18.231Z,57.28
2023-07-14T06:29:47.433Z,56.86
2023-07-14T06:32:18.277Z,56.73
2023-07-14T06:34:58.112Z,56.05
2023-07-14T06:37:49.310Z,55.90
2023-07-14T06:40:18.507Z,55.91
2023-07-14T06:42:46.911Z,56.00
2023-07-14T06:45:15.587Z,56.32
2023-07-14T06:47:44.275Z,55.43
2023-07-14T06:50:13.258Z,53.95
2023-07-14T06:52:41.884Z,53.59
2023-07-14T06:55:19.362Z,53.65
2023-07-14T06:57:48.200Z,54.03
2023-07-14T07:00:17.047Z,53.60
2023-07-14T07:02:45.325Z,53.53
2023-07-14T07:05:17.114Z,54.24
2023-07-14T07:07:49.356Z,54.59
2023-07-14T07:10:20.827Z,54.38
2023-07-14T07:12:49.687Z,53.81
2023-07-14T07:15:21.534Z,53.38
2023-07-14T07:17:53.257Z,52.87
2023-07-14T07:20:32.893Z,53.00
2023-07-14T07:23:04.901Z,53.16
2023-07-14T07:25:57.918Z,53.58
2023-07-14T07:28:26.630Z,53.15
2023-07-14T07:30:58.747Z,53.04
2023-07-14T07:33:30.036Z,53.09
2023-07-14T07:35:58.535Z,52.86
2023-07-14T07:38:26.971Z,52.38
2023-07-14T07:40:55.387Z,51.89
2023-07-14T07:43:29.468Z,51.15
2023-07-14T07:45:58.044Z,50.98
2023-07-14T07:48:29.035Z,51.06
2023-07-14T07:50:58.522Z,50.30
2023-07-14T07:53:29.165Z,50.47
2023-07-14T07:56:21.697Z,50.64
2023-07-14T07:58:51.228Z,50.48
2023-07-14T08:01:25.284Z,50.33
2023-07-14T08:03:54.120Z,50.27
2023-07-14T08:06:33.057Z,50.05
2023-07-14T08:09:21.356Z,50.23
2023-07-14T08:11:56.927Z,50.11
2023-07-14T08:14:25.702Z,49.03
2023-07-14T08:16:54.589Z,49.08
2023-07-14T08:19:46.153Z,48.93
2023-07-14T08:22:14.609Z,47.96
2023-07-14T08:24:45.617Z,46.67
2023-07-14T08:27:15.814Z,47.21
2023-07-14T08:29:45.072Z,46.87
2023-07-14T08:32:36.469Z,46.58
2023-07-14T08:35:06.204Z,47.17
2023-07-14T08:37:35.504Z,48.38
2023-07-14T08:40:24.554Z,48.28
2023-07-14T08:43:35.361Z,48.08
2023-07-14T08:46:13.514Z,48.22
2023-07-14T08:48:50.328Z,47.92
2023-07-14T08:51:46.076Z,48.07
2023-07-14T08:54:21.642Z,47.77
2023-07-14T08:56:53.722Z,47.33
2023-07-14T08:59:47.330Z,46.80
2023-07-14T09:02:16.024Z,46.30
2023-07-14T09:05:03.512Z,46.44
2023-07-14T09:07:32.332Z,46.10
2023-07-14T09:10:01.106Z,46.13
2023-07-14T09:12:45.634Z,45.99
2023-07-14T09:15:21.303Z,45.42
2023-07-14T09:17:57.253Z,44.08
2023-07-14T09:20:46.266Z,44.32
2023-07-14T09:23:36.737Z,43.38
2023-07-14T09:26:17.661Z,42.78
2023-07-14T09:28:49.486Z,42.83
2023-07-14T09:31:42.174Z,43.33
2023-07-14T09:34:45.605Z,43.09
2023-07-14T09:37:21.499Z,43.21
2023-07-14T09:40:22.785Z,43.28
2023-07-14T09:42:57.508Z,42.74
2023-07-14T09:45:36.692Z,41.93
2023-07-14T09:48:19.143Z,41.98
2023-07-14T09:50:47.753Z,41.76
2023-07-14T09:53:15.919Z,41.55
2023-07-14T09:55:54.544Z,41.13
2023-07-14T09:58:30.460Z,41.16
2023-07-14T10:01:05.511Z,40.41
2023-07-14T10:03:45.636Z,40.29
2023-07-14T10:06:24.281Z,39.99
2023-07-14T10:08:58.699Z,39.41
2023-07-14T10:11:48.800Z,39.31
2023-07-14T10:14:38.570Z,40.01
2023-07-14T10:17:26.952Z,39.91
2023-07-14T10:19:59.089Z,39.43
2023-07-14T10:22:36.970Z,39.78
2023-07-14T10:25:05.559Z,39.91
2023-07-14T10:27:34.718Z,39.37
2023-07-14T10:30:44.109Z,39.99
2023-07-14T10:33:31.617Z,39.35
2023-07-14T10:36:08.900Z,38.96
2023-07-14T10:39:08.044Z,39.01
2023-07-14T10:41:38.774Z,38.71
2023-07-14T10:44:37.573Z,39.24
2023-07-14T10:47:25.557Z,39.60
2023-07-14T10:50:17.201Z,39.80
2023-07-14T10:52:53.297Z,40.35
2023-07-14T10:55:32.213Z,39.96
2023-07-14T10:58:13.941Z,39.37
2023-07-14T11:00:48.793Z,39.75
2023-07-14T11:03:31.784Z,39.03
2023-07-14T11:06:07.072Z,39.01
2023-07-14T11:08:36.407Z,39.54
2023-07-14T11:11:04.760Z,39.36
2023-07-14T11:13:44.933Z,39.31
2023-07-14T11:16:26.596Z,38.76
2023-07-14T11:19:08.326Z,38.07
2023-07-14T11:21:40.638Z,37.43
2023-07-14T11:24:19.924Z,37.89
2023-07-14T11:27:14.107Z,38.25
2023-07-14T11:29:55.477Z,38.71
2023-07-14T11:32:35.602Z,38.91
2023-07-14T11:35:18.416Z,38.45
2023-07-14T11:38:31.658Z,37.84
2023-07-14T11:41:01.632Z,37.61
2023-07-14T11:43:31.894Z,37.87
2023-07-14T11:46:07.653Z,38.41
2023-07-14T11:48:46.184Z,38.67
2023-07-14T11:51:19.130Z,38.94
2023-07-14T11:54:34.367Z,38.23
2023-07-14T11:57:17.820Z,37.24
2023-07-14T12:00:29.965Z,36.82
2023-07-14T12:02:58.902Z,36.62
2023-07-14T12:05:39.429Z,37.00
2023-07-14T12:08:08.620Z,35.95
2023-07-14T12:10:39.653Z,35.99
2023-07-14T12:13:20.373Z,36.32
2023-07-14T12:16:05.637Z,36.29
2023-07-14T12:19:01.115Z,36.23
2023-07-14T12:21:47.308Z,36.11
2023-07-14T12:24:18.886Z,36.00
2023-07-14T12:26:47.513Z,35.73
2023-07-14T12:29:18.859Z,35.36
2023-07-14T12:31:53.606Z,35.76
2023-07-14T12:34:32.749Z,36.30
2023-07-14T12:37:03.235Z,36.80
2023-07-14T12:39:32.203Z,36.78
2023-07-14T12:42:04.286Z,36.31
2023-07-14T12:44:37.123Z,36.59
2023-07-14T12:47:05.981Z,37.12
2023-07-14T12:49:37.976Z,36.95
2023-07-14T12:52:26.349Z,36.92
2023-07-14T12:55:00.894Z,36.52
2023-07-14T12:57:36.768Z,37.22
2023-07-14T13:00:27.343Z,37.58
2023-07-14T13:03:06.137Z,37.54
2023-07-14T13:05:37.459Z,37.63
2023-07-14T13:08:14.485Z,37.60
2023-07-14T13:10:44.810Z,37.50
2023-07-14T13:13:21.596Z,38.12
2023-07-14T13:15:56.367Z,37.48
2023-07-14T13:18:34.440Z,37.41
2023-07-14T13:21:06.317Z,36.94
2023-07-14T13:23:37.130Z,37.18
2023-07-14T13:26:06.598Z,36.68
2023-07-14T13:28:41.708Z,36.55
2023-07-14T13:31:19.138Z,36.21
2023-07-14T13:33:50.908Z,36.47
2023-07-14T13:36:26.069Z,36.70
2023-07-14T13:38:57.699Z,36.32
2023-07-14T13:41:29.103Z,36.30
2023-07-14T13:44:32.095Z,36.09
2023-07-14T13:47:11.303Z,36.75
2023-07-14T13:49:40.701Z,36.90
2023-07-14T13:52:20.586Z,36.92
2023-07-14T13:54:56.900Z,37.32
2023-07-14T13:57:25.685Z,37.12
2023-07-14T13:59:54.626Z,36.72
2023-07-14T14:02:27.086Z,36.77
2023-07-14T14:04:56.539Z,36.82
2023-07-14T14:07:25.369Z,36.72
2023-07-14T14:09:53.983Z,36.54
2023-07-14T14:12:23.246Z,36.32
2023-07-14T14:14:51.947Z,36.47
2023-07-14T14:17:36.620Z,36.84
2023-07-14T14:20:12.590Z,37.42
2023-07-14T14:22:41.101Z,37.29
2023-07-14T14:25:17.589Z,37.22
2023-07-14T14:27:50.802Z,36.70
2023-07-14T14:30:23.070Z,35.70
2023-07-14T14:32:51.517Z,35.79
2023-07-14T14:35:24.836Z,35.45
2023-07-14T14:37:57.758Z,35.25
2023-07-14T14:40:29.599Z,35.36
2023-07-14T14:43:03.265Z,35.50
2023-07-14T14:45:33.377Z,35.34
2023-07-14T14:48:02.321Z,35.20
2023-07-14T14:50:31.015Z,35.55
2023-07-14T14:53:00.341Z,35.96
2023-07-14T14:55:28.850Z,36.15
2023-07-14T14:57:57.965Z,35.88
2023-07-14T15:00:35.601Z,36.19
2023-07-14T15:03:05.033Z,35.89
2023-07-14T15:05:34.031Z,36.02
2023-07-14T15:08:02.266Z,35.73
2023-07-14T15:10:31.101Z,35.82
2023-07-14T15:13:00.028Z,35.59
2023-07-14T15:15:35.247Z,35.21
2023-07-14T15:18:04.163Z,34.83
2023-07-14T15:20:32.493Z,34.79
2023-07-14T15:23:05.636Z,34.63
2023-07-14T15:25:50.297Z,34.76
2023-07-14T15:28:23.652Z,34.82
2023-07-14T15:30:55.006Z,34.84
2023-07-14T15:33:24.756Z,34.95
2023-07-14T15:35:57.795Z,34.72
2023-07-14T15:38:26.679Z,34.69
2023-07-14T15:40:55.606Z,34.87
2023-07-14T15:43:32.566Z,34.94
2023-07-14T15:46:03.075Z,35.21
2023-07-14T15:48:42.163Z,35.29
2023-07-14T15:51:21.967Z,35.22
2023-07-14T15:53:51.780Z,35.36
2023-07-14T15:56:22.787Z,35.27
2023-07-14T15:58:51.654Z,35.33
2023-07-14T16:01:29.861Z,35.44
2023-07-14T16:04:02.303Z,35.84
2023-07-14T16:06:33.675Z,35.65
2023-07-14T16:09:01.951Z,35.62
2023-07-14T16:11:35.976Z,35.60
2023-07-14T16:14:28.369Z,35.78
2023-07-14T16:16:56.988Z,35.85
2023-07-14T16:20:25.080Z,35.51
2023-07-14T16:23:02.273Z,35.39
2023-07-14T16:25:32.805Z,35.33
2023-07-14T16:28:01.432Z,35.45
2023-07-14T16:30:30.803Z,35.48
2023-07-14T16:32:59.516Z,35.81
2023-07-14T16:35:31.013Z,36.13
2023-07-14T16:38:05.048Z,35.88
2023-07-14T16:40:37.314Z,35.99
2023-07-14T16:43:12.329Z,35.77
2023-07-14T16:45:50.801Z,35.89
2023-07-14T16:48:23.185Z,35.95
2023-07-14T16:50:54.328Z,36.40
2023-07-14T16:53:23.420Z,36.96
2023-07-14T16:55:52.043Z,36.72
2023-07-14T16:58:29.325Z,36.72
2023-07-14T17:01:28.165Z,36.73
2023-07-14T17:04:00.556Z,36.62
2023-07-14T17:06:48.873Z,36.27
2023-07-14T17:09:22.104Z,35.96
2023-07-14T17:11:56.190Z,35.65
2023-07-14T17:14:32.246Z,35.66
2023-07-14T17:17:02.188Z,35.60
2023-07-14T17:19:32.412Z,35.45
2023-07-14T17:22:03.071Z,35.48
2023-07-14T17:24:31.369Z,35.60
2023-07-14T17:27:02.334Z,35.43
2023-07-14T17:29:32.774Z,35.56
2023-07-14T17:32:04.009Z,35.80
2023-07-14T17:34:34.637Z,35.76
2023-07-14T17:37:08.049Z,36.00
2023-07-14T17:39:47.786Z,36.35
2023-07-14T17:42:19.118Z,36.20
2023-07-14T17:44:48.092Z,36.55
2023-07-14T17:47:16.593Z,36.45
2023-07-14T17:49:45.017Z,36.79
2023-07-14T17:52:17.810Z,36.53
2023-07-14T17:54:48.496Z,37.00
2023-07-14T17:57:23.387Z,37.17
2023-07-14T17:59:53.681Z,37.51
2023-07-14T18:02:36.954Z,38.02
2023-07-14T18:05:13.334Z,38.32
2023-07-14T18:07:43.074Z,38.69
2023-07-14T18:10:13.367Z,39.15
2023-07-14T18:12:42.803Z,39.21
2023-07-14T18:15:33.491Z,39.33
2023-07-14T18:18:05.773Z,39.66
2023-07-14T18:20:37.563Z,40.04
2023-07-14T18:23:13.851Z,40.23
2023-07-14T18:25:42.220Z,40.53
2023-07-14T18:28:19.082Z,40.93
2023-07-14T18:30:56.252Z,41.10
2023-07-14T18:33:29.733Z,40.97
2023-07-14T18:35:58.882Z,41.00
2023-07-14T18:38:59.890Z,40.87
2023-07-14T18:41:28.693Z,41.08
2023-07-14T18:43:58.053Z,41.29
2023-07-14T18:46:27.030Z,41.46
2023-07-14T18:48:55.957Z,41.58
2023-07-14T18:51:33.019Z,41.85
2023-07-14T18:54:16.774Z,42.04
2023-07-14T18:57:04.200Z,42.10
2023-07-14T18:59:32.692Z,43.13
2023-07-14T19:02:03.022Z,43.11
2023-07-14T19:04:34.837Z,44.04
2023-07-14T19:07:04.119Z,44.45
2023-07-14T19:09:32.508Z,44.67
2023-07-14T19:12:01.785Z,44.34
2023-07-14T19:14:36.381Z,44.03
2023-07-14T19:17:06.451Z,43.63
2023-07-14T19:19:41.558Z,43.69
2023-07-14T19:22:14.228Z,43.47
2023-07-14T19:24:47.437Z,43.15
2023-07-14T19:27:19.353Z,43.29
2023-07-14T19:29:57.136Z,43.48
2023-07-14T19:32:38.063Z,43.38
2023-07-14T19:35:14.780Z,43.39
2023-07-14T19:37:45.851Z,43.34
2023-07-14T19:40:38.888Z,43.40
2023-07-14T19:43:16.724Z,43.48
2023-07-14T19:45:47.975Z,43.46
2023-07-14T19:48:22.657Z,43.57
2023-07-14T19:51:01.941Z,43.49
2023-07-14T19:53:33.231Z,43.78
2023-07-14T19:56:26.404Z,43.61
2023-07-14T19:58:58.154Z,43.72
2023-07-14T20:01:28.253Z,43.76
2023-07-14T20:03:59.374Z,43.85
2023-07-14T20:06:31.321Z,43.84
2023-07-14T20:09:07.662Z,43.93
2023-07-14T20:11:41.942Z,43.62
2023-07-14T20:14:42.951Z,43.76
2023-07-14T20:17:14.649Z,43.99
2023-07-14T20:19:46.939Z,43.94
2023-07-14T20:22:22.388Z,43.87
2023-07-14T20:24:52.291Z,44.15
2023-07-14T20:28:02.093Z,44.09
2023-07-14T20:30:30.938Z,44.25
2023-07-14T20:33:02.993Z,44.45
2023-07-14T20:35:36.551Z,44.54
2023-07-14T20:38:25.597Z,44.60
2023-07-14T20:41:00.999Z,44.61
2023-07-14T20:43:50.507Z,44.61
2023-07-14T20:47:11.531Z,44.95
2023-07-14T20:49:41.031Z,45.04
2023-07-14T20:52:19.509Z,45.45
2023-07-14T20:55:23.396Z,45.72
2023-07-14T20:58:12.103Z,45.86
2023-07-14T21:00:42.199Z,46.17
2023-07-14T21:03:39.621Z,46.68
2023-07-14T21:06:18.313Z,46.70
2023-07-14T21:09:09.653Z,46.81
2023-07-14T21:11:38.799Z,47.05
2023-07-14T21:14:17.794Z,47.10
2023-07-14T21:16:49.586Z,47.35
2023-07-14T21:19:47.121Z,47.67
2023-07-14T21:22:22.826Z,47.85
2023-07-14T21:25:00.228Z,48.02
2023-07-14T21:27:33.400Z,48.16
2023-07-14T21:30:02.083Z,48.52
2023-07-14T21:32:41.083Z,48.64
2023-07-14T21:35:21.692Z,48.99
2023-07-14T21:37:50.106Z,48.98
2023-07-14T21:40:32.049Z,49.48
2023-07-14T21:43:03.240Z,49.44
2023-07-14T21:45:35.277Z,49.52
2023-07-14T21:48:20.137Z,49.63
2023-07-14T21:50:53.916Z,49.94
2023-07-14T21:53:30.147Z,50.07
2023-07-14T21:56:00.202Z,50.05
2023-07-14T21:58:31.363Z,50.33
2023-07-14T22:01:13.381Z,50.41
2023-07-14T22:03:48.036Z,50.43
2023-07-14T22:06:18.446Z,50.74
2023-07-14T22:08:47.213Z,50.87
2023-07-14T22:11:22.885Z,50.99
2023-07-14T22:13:54.492Z,51.17
2023-07-14T22:16:24.421Z,51.12
2023-07-14T22:18:53.395Z,51.47
2023-07-14T22:21:28.911Z,51.42
2023-07-14T22:23:57.455Z,51.62
2023-07-14T22:26:27.674Z,51.74
2023-07-14T22:28:56.411Z,51.72
2023-07-14T22:31:29.124Z,52.07
2023-07-14T22:34:03.202Z,52.32
2023-07-14T22:36:34.390Z,52.09
2023-07-14T22:39:03.387Z,52.08
2023-07-14T22:41:41.144Z,52.27
2023-07-14T22:44:14.328Z,52.48
2023-07-14T22:46:53.376Z,52.54
2023-07-14T22:49:30.570Z,52.73
2023-07-14T22:51:59.030Z,52.71
2023-07-14T22:54:31.193Z,52.85
2023-07-14T22:57:21.038Z,52.92
2023-07-14T22:59:49.664Z,53.04
2023-07-14T23:02:27.530Z,53.07
2023-07-14T23:05:15.097Z,53.19
2023-07-14T23:07:53.956Z,53.37
2023-07-14T23:10:22.968Z,53.43
2023-07-14T23:13:14.137Z,53.62
2023-07-14T23:15:49.940Z,53.76
2023-07-14T23:18:20.894Z,53.87
2023-07-14T23:20:57.467Z,53.81
2023-07-14T23:23:34.375Z,54.00
2023-07-14T23:26:11.078Z,54.13
2023-07-14T23:28:52.989Z,54.21
2023-07-14T23:31:48.494Z,54.31
2023-07-14T23:34:16.932Z,54.40
2023-07-14T23:36:45.654Z,54.35
2023-07-14T23:39:37.962Z,54.18
2023-07-14T23:42:12.383Z,54.35
2023-07-14T23:45:01.802Z,54.34
2023-07-14T23:47:37.691Z,54.42
2023-07-14T23:50:06.799Z,54.27
2023-07-14T23:52:40.996Z,54.39
2023-07-14T23:55:22.875Z,54.44
2023-07-14T23:58:06.565Z,54.56
